Terminal Aerodrome Forecast
Issued by NWS Jackson, MS

Home | Current Version | Previous Version | Text Only | Print | Product List | Glossary On
Versions: 1 2 3 4 5 6 7 8 9 10 11 12 13 14 15 16 17 18 19 20 21
000
FTUS44 KJAN 190616 RRA
TAFHBG
TAF
KHBG 190616Z 1906/2006 16006KT P6SM SHRA BKN006 OVC020
     FM191500 18012G20KT P6SM VCTS FEW008 SCT015CB OVC090
     FM192000 19012G20KT 3SM +TSRA SCT015CB OVC050
     FM200200 18008KT 5SM -TSRA BR SCT015CB BKN050=

USA.gov is the U.S. government's official web portal to all federal, state and local government web resources and services.